Airport Name : Wunstorf

Other Name : Wunstorf

ICAO : ETNW

IATA :

FAA :

Latitude : 52.457333

Longitude : 9.427167

Country : Germany

Local Date and Time : 27 May 2022 23:26

 

TAF (Terminal Aerodrome Forecast)

TAF ETNW 271645Z 2717/2817 28020G30KT 9999 NSW BKN050 PROB30 2717/2719 30025G35KT 4000 SHRA SCT020 BKN040TCU BECMG 2719/2721 27012G22KT 9999 NSW SCT050 TEMPO 2721/2817 29015G25KT 9999 NSW SCT030 PROB30 2809/2817 29020G30KT 2000 SHRA SCT010 BKN020CB BY ETGL

 

METAR (METeorological Aerodrome Report)

ETNW 272120Z 28014KT 9999 FEW030CB 12/05 Q1017 BLU+

ETNW 272020Z 29019G31KT 9999 FEW035 13/05 Q1017 BLU+

ETNW 271920Z 29020KT 9999 FEW043 BKN065 14/04 Q1017 BLU

ETNW 271820Z 28017KT 9999 SCT045 14/05 Q1017 BLU+

To Charter a Jet Click here.